Council, Idaho
Current Conditions -  °F | °C
As of 6:51 AM on Monday 26 Jan 2015 (Local Time) from KMYL Reporting Station
Haze Haze  
Wind Chill: 25°   Ceiling: 300
Heat Index: 25°   Visibility: 0.75mi
Dew Point: 21°   Wind: 3mph
Humidity: 85%   Direction: 240°WSW
Pressure: 30.3"   Gusts: NA
Location:  44.73°N, 116.44°W
Report Text: KMYL 261351Z AUTO 24003KT 3/4SM BR OVC003 M04/M06 A3030 RMK AO2 SLP292 T10391061
Loading
Personal Weather Stations






























Interactive Weather Map New forecast layout! Learn more

10-Day Weather Forecast

Advertisements
Track Severe Weather on mobile